Terminal Aerodrome Forecast
Issued by NWS Shreveport, LA

Home | Current Version | Previous Version | Text Only | Print | Product List | Glossary On
Versions: 1 2 3 4 5 6 7 8 9 10 11 12 13 14 15 16 17
750
FTUS44 KSHV 031130
TAFGGG
TAF
KGGG 031130Z 0312/0412 33005KT P6SM SKC
     FM031500 36007KT P6SM SKC
     FM031800 36009KT P6SM SCT040
     FM040000 34004KT P6SM FEW150 SCT250
     FM040600 VRB03KT P6SM BKN150 BKN250=

USA.gov is the U.S. government's official web portal to all federal, state and local government web resources and services.